createdAt,value
2023-03-23T15:58:31.994Z,100.00
2023-03-23T16:01:01.953Z,98.19
2023-03-23T16:03:35.854Z,96.44
2023-03-23T16:06:04.134Z,94.66
2023-03-23T16:08:32.094Z,95.78
2023-03-23T16:11:00.106Z,95.87
2023-03-23T16:13:29.425Z,97.02
2023-03-23T16:15:57.303Z,96.82
2023-03-23T16:18:25.196Z,97.51
2023-03-23T16:20:52.977Z,97.80
2023-03-23T16:23:21.059Z,99.51
2023-03-23T16:25:48.913Z,100.00
2023-03-23T16:28:17.182Z,100.00
2023-03-23T16:30:46.619Z,100.00
2023-03-23T16:33:14.803Z,99.70
2023-03-23T16:35:43.591Z,100.00
2023-03-23T16:38:14.294Z,100.00
2023-03-23T16:40:42.415Z,100.00
2023-03-23T16:43:10.886Z,100.00
2023-03-23T16:45:43.169Z,100.00
2023-03-23T16:48:13.907Z,99.86
2023-03-23T16:50:42.728Z,100.00
2023-03-23T16:53:11.398Z,100.00
2023-03-23T16:55:40.494Z,100.00
2023-03-23T17:02:20.615Z,100.00
2023-03-23T17:04:49.804Z,100.00
2023-03-23T17:07:17.867Z,100.00
2023-03-23T17:09:45.835Z,100.00
2023-03-23T17:12:13.601Z,100.00
2023-03-23T17:14:41.477Z,100.00
2023-03-23T17:17:12.673Z,100.00
2023-03-23T17:19:40.929Z,100.00
2023-03-23T17:22:10.116Z,100.00
2023-03-23T17:24:37.962Z,100.00
2023-03-23T17:27:06.056Z,100.00
2023-03-23T17:29:34.290Z,100.00
2023-03-23T17:32:02.193Z,100.00
2023-03-23T17:34:29.941Z,100.00
2023-03-23T17:36:57.752Z,100.00
2023-03-23T17:39:28.028Z,100.00
2023-03-23T17:41:55.845Z,100.00
2023-03-23T17:44:23.635Z,99.92
2023-03-23T17:46:51.448Z,100.00
2023-03-23T17:49:20.179Z,100.00
2023-03-23T17:51:48.076Z,99.45
2023-03-23T17:54:15.903Z,98.32
2023-03-23T17:56:45.241Z,98.08
2023-03-23T17:59:13.325Z,97.68
2023-03-23T18:01:41.179Z,98.64
2023-03-23T18:04:08.992Z,99.51
2023-03-23T18:06:36.986Z,100.00
2023-03-23T18:09:05.605Z,100.00
2023-03-23T18:11:33.601Z,100.00
2023-03-23T18:14:02.859Z,100.00
2023-03-23T18:16:30.665Z,100.00
2023-03-23T18:18:58.588Z,100.00
2023-03-23T18:21:26.971Z,100.00
2023-03-23T18:23:59.586Z,100.00
2023-03-23T18:26:28.942Z,100.00
2023-03-23T18:28:56.976Z,100.00
2023-03-23T18:31:26.578Z,100.00
2023-03-23T18:33:55.336Z,100.00
2023-03-23T18:36:26.279Z,100.00
2023-03-23T18:38:57.277Z,100.00
2023-03-23T18:41:25.594Z,100.00
2023-03-23T18:43:55.127Z,100.00
2023-03-23T18:46:24.216Z,100.00
2023-03-23T18:48:53.824Z,100.00
2023-03-23T18:51:22.212Z,100.00
2023-03-23T18:53:50.081Z,100.00
2023-03-23T18:56:18.799Z,100.00
2023-03-23T18:58:46.955Z,100.00
2023-03-23T19:01:17.029Z,100.00
2023-03-23T19:03:46.007Z,100.00
2023-03-23T19:06:18.726Z,100.00
2023-03-23T19:08:47.043Z,100.00
2023-03-23T19:11:15.158Z,100.00
2023-03-23T19:13:53.864Z,100.00
2023-03-23T19:16:29.056Z,100.00
2023-03-23T19:18:56.957Z,100.00
2023-03-23T19:21:29.054Z,100.00
2023-03-23T19:23:59.291Z,100.00
2023-03-23T19:26:30.030Z,100.00
2023-03-23T19:31:29.885Z,100.00
2023-03-23T19:33:58.484Z,100.00
2023-03-23T19:36:28.014Z,100.00
2023-03-23T19:38:57.642Z,100.00
2023-03-23T19:41:27.586Z,100.00
2023-03-23T19:43:55.720Z,100.00
2023-03-23T19:46:24.019Z,100.00
2023-03-23T19:48:52.022Z,100.00
2023-03-23T19:51:22.490Z,100.00
2023-03-23T19:53:52.056Z,100.00
2023-03-23T19:56:22.435Z,100.00
2023-03-23T19:58:50.693Z,100.00
2023-03-23T20:01:19.196Z,100.00
2023-03-23T20:03:47.502Z,100.00
2023-03-23T20:06:16.549Z,100.00
2023-03-23T20:08:47.648Z,100.00
2023-03-23T20:11:19.035Z,100.00
2023-03-23T20:13:48.669Z,100.00
2023-03-23T20:16:17.812Z,100.00
2023-03-23T20:18:47.422Z,100.00
2023-03-23T20:21:20.185Z,100.00
2023-03-23T20:23:49.083Z,100.00
2023-03-23T20:26:21.070Z,100.00
2023-03-23T20:28:49.142Z,100.00
2023-03-23T20:31:24.183Z,100.00
2023-03-23T20:33:59.906Z,100.00
2023-03-23T20:36:34.963Z,100.00
2023-03-23T20:39:05.175Z,100.00
2023-03-23T20:41:36.614Z,100.00
2023-03-23T20:44:05.385Z,100.00
2023-03-23T20:46:33.499Z,100.00
2023-03-23T20:49:01.824Z,100.00
2023-03-23T20:51:31.281Z,100.00
2023-03-23T20:53:59.391Z,100.00
2023-03-23T20:56:28.657Z,100.00
2023-03-23T20:58:57.858Z,100.00
2023-03-23T21:01:26.227Z,100.00
2023-03-23T21:03:56.806Z,100.00
2023-03-23T21:06:28.344Z,100.00
2023-03-23T21:08:56.978Z,100.00
2023-03-23T21:11:26.670Z,100.00
2023-03-23T21:13:54.626Z,100.00
2023-03-23T21:16:24.700Z,100.00
2023-03-23T21:18:52.512Z,98.41
2023-03-23T21:21:20.619Z,97.08
2023-03-23T21:23:52.375Z,96.76
2023-03-23T21:26:22.624Z,95.54
2023-03-23T21:28:53.877Z,95.16
2023-03-23T21:31:25.599Z,94.86
2023-03-23T21:33:53.437Z,94.63
2023-03-23T21:36:21.408Z,95.04
2023-03-23T21:38:50.067Z,94.37
2023-03-23T21:41:18.479Z,93.41
2023-03-23T21:43:46.776Z,93.58
2023-03-23T21:46:18.411Z,92.51
2023-03-23T21:48:50.845Z,91.61
2023-03-23T21:51:21.538Z,92.23
2023-03-23T21:53:50.111Z,91.62
2023-03-23T21:56:18.062Z,91.44
2023-03-23T21:58:46.284Z,91.64
2023-03-23T22:01:14.138Z,91.18
2023-03-23T22:03:42.415Z,90.65
2023-03-23T22:06:14.964Z,90.77
2023-03-23T22:08:44.696Z,91.24
2023-03-23T22:11:15.497Z,90.54
2023-03-23T22:13:43.750Z,90.19
2023-03-23T22:16:14.361Z,90.25
2023-03-23T22:18:43.367Z,90.15
2023-03-23T22:21:14.328Z,90.98
2023-03-23T22:23:42.751Z,91.00
2023-03-23T22:26:11.336Z,92.20
2023-03-23T22:28:40.068Z,92.45
2023-03-23T22:31:12.866Z,92.19
2023-03-23T22:33:41.163Z,92.65
2023-03-23T22:36:10.215Z,91.52
2023-03-23T22:38:41.639Z,91.49
2023-03-23T22:41:10.924Z,90.34
2023-03-23T22:43:39.141Z,90.33
2023-03-23T22:46:07.752Z,90.41
2023-03-23T22:48:35.723Z,90.67
2023-03-23T22:51:04.312Z,90.19
2023-03-23T22:53:32.831Z,90.77
2023-03-23T22:56:02.140Z,90.72
2023-03-23T22:58:30.262Z,91.07
2023-03-23T23:01:00.380Z,90.49
2023-03-23T23:03:29.511Z,89.02
2023-03-23T23:05:58.924Z,90.91
2023-03-23T23:08:29.408Z,90.80
2023-03-23T23:10:59.655Z,89.71
2023-03-23T23:13:29.826Z,90.13
2023-03-23T23:16:00.748Z,90.14
2023-03-23T23:18:30.455Z,91.39
2023-03-23T23:21:00.544Z,91.14
2023-03-23T23:23:29.840Z,92.02
2023-03-23T23:25:57.860Z,91.98
2023-03-23T23:28:26.608Z,93.17
2023-03-23T23:30:56.500Z,92.17
2023-03-23T23:33:24.456Z,91.23
2023-03-23T23:35:54.280Z,91.35
2023-03-23T23:38:22.389Z,93.82
2023-03-23T23:40:50.505Z,94.21
2023-03-23T23:43:18.779Z,94.19
2023-03-23T23:45:46.794Z,94.49
2023-03-23T23:48:16.127Z,96.41
2023-03-23T23:50:44.330Z,97.47
2023-03-23T23:53:12.998Z,98.99
2023-03-23T23:55:41.085Z,99.11
2023-03-23T23:58:09.122Z,100.00
